createdAt,value
2023-05-25T00:01:49.346Z,2.72
2023-05-25T00:04:19.570Z,2.67
2023-05-25T00:06:47.935Z,3.13
2023-05-25T00:09:17.394Z,3.13
2023-05-25T00:11:46.290Z,3.10
2023-05-25T00:14:14.611Z,3.78
2023-05-25T00:16:43.049Z,3.00
2023-05-25T00:19:11.545Z,2.97
2023-05-25T00:21:41.533Z,3.10
2023-05-25T00:24:10.025Z,3.22
2023-05-25T00:26:39.824Z,3.35
2023-05-25T00:29:07.950Z,3.47
2023-05-25T00:31:36.711Z,2.90
2023-05-25T00:34:05.184Z,3.05
2023-05-25T00:36:33.298Z,3.03
2023-05-25T00:39:01.420Z,3.00
2023-05-25T00:41:29.810Z,3.50
2023-05-25T00:43:59.284Z,2.70
2023-05-25T00:46:28.909Z,3.25
2023-05-25T00:48:57.337Z,3.83
2023-05-25T00:51:27.456Z,2.75
2023-05-25T00:53:55.597Z,3.00
2023-05-25T00:56:29.014Z,3.30
2023-05-25T00:59:01.647Z,2.90
2023-05-25T01:01:33.663Z,3.42
2023-05-25T01:04:04.618Z,2.85
2023-05-25T01:06:34.938Z,3.03
2023-05-25T01:09:07.043Z,3.38
2023-05-25T01:11:38.295Z,3.13
2023-05-25T01:14:07.877Z,2.80
2023-05-25T01:16:37.759Z,3.88
2023-05-25T01:19:06.225Z,3.30
2023-05-25T01:21:42.210Z,3.15
2023-05-25T01:24:17.652Z,2.88
2023-05-25T01:29:17.066Z,3.20
2023-05-25T01:31:46.750Z,3.10
2023-05-25T01:34:16.377Z,3.28
2023-05-25T01:36:45.964Z,3.25
2023-05-25T01:39:14.142Z,3.00
2023-05-25T01:41:42.384Z,3.95
2023-05-25T01:44:10.807Z,3.05
2023-05-25T01:46:40.758Z,3.63
2023-05-25T01:49:17.928Z,3.38
2023-05-25T01:51:57.622Z,3.38
2023-05-25T01:54:34.172Z,3.22
2023-05-25T01:57:06.178Z,3.22
2023-05-25T01:59:35.484Z,3.25
2023-05-25T02:02:04.681Z,2.83
2023-05-25T02:04:33.247Z,2.65
2023-05-25T02:07:04.452Z,3.47
2023-05-25T02:09:32.557Z,3.13
2023-05-25T02:12:01.024Z,3.30
2023-05-25T02:14:29.380Z,2.88
2023-05-25T02:16:57.930Z,3.60
2023-05-25T02:19:26.057Z,3.13
2023-05-25T02:21:54.189Z,2.90
2023-05-25T02:24:24.641Z,2.90
2023-05-25T02:26:53.103Z,3.70
2023-05-25T02:29:21.341Z,2.58
2023-05-25T02:31:49.585Z,3.30
2023-05-25T02:34:17.762Z,3.47
2023-05-25T02:36:45.916Z,2.90
2023-05-25T02:39:14.034Z,3.70
2023-05-25T02:41:43.667Z,3.30
2023-05-25T02:44:11.789Z,3.40
2023-05-25T02:46:39.937Z,3.42
2023-05-25T02:49:08.074Z,2.83
2023-05-25T02:51:37.113Z,4.55
2023-05-25T02:54:05.474Z,3.90
2023-05-25T02:56:33.694Z,4.88
2023-05-25T02:59:03.342Z,4.20
2023-05-25T03:01:31.908Z,3.35
2023-05-25T03:04:00.370Z,4.30
2023-05-25T03:06:28.627Z,3.40
2023-05-25T03:08:56.845Z,4.22
2023-05-25T03:11:25.116Z,3.83
2023-05-25T03:13:53.430Z,3.83
2023-05-25T03:16:24.077Z,4.07
2023-05-25T03:18:52.231Z,3.90
2023-05-25T03:21:22.426Z,3.40
2023-05-25T03:23:50.694Z,3.40
2023-05-25T03:26:18.882Z,3.15
2023-05-25T03:28:47.005Z,3.35
2023-05-25T03:31:15.206Z,3.50
2023-05-25T03:33:44.685Z,3.22
2023-05-25T03:36:13.748Z,3.80
2023-05-25T03:38:42.077Z,3.58
2023-05-25T03:41:10.264Z,3.13
2023-05-25T03:43:38.409Z,2.63
2023-05-25T03:46:06.797Z,3.55
2023-05-25T03:48:35.019Z,3.40
2023-05-25T03:51:05.018Z,3.88
2023-05-25T03:53:33.276Z,4.35
2023-05-25T03:56:01.485Z,3.50
2023-05-25T03:58:29.583Z,3.47
2023-05-25T04:00:58.383Z,3.80
2023-05-25T04:03:27.862Z,3.40
2023-05-25T04:05:58.195Z,3.28
2023-05-25T04:08:28.822Z,3.05
2023-05-25T04:10:57.472Z,3.03
2023-05-25T04:13:26.438Z,3.92
2023-05-25T04:15:54.630Z,3.88
2023-05-25T04:18:22.873Z,3.25
2023-05-25T04:20:51.042Z,4.18
2023-05-25T04:23:21.361Z,4.85
2023-05-25T04:25:51.660Z,3.95
2023-05-25T04:28:20.612Z,3.65
2023-05-25T04:30:48.823Z,3.92
2023-05-25T04:33:17.972Z,4.13
2023-05-25T04:35:46.847Z,4.13
2023-05-25T04:38:17.703Z,4.50
2023-05-25T04:40:47.295Z,3.63
2023-05-25T04:43:18.365Z,3.47
2023-05-25T04:45:47.488Z,3.70
2023-05-25T04:48:15.864Z,3.65
2023-05-25T04:50:44.177Z,4.93
2023-05-25T04:53:12.528Z,3.50
2023-05-25T04:55:41.011Z,4.95
2023-05-25T04:58:09.148Z,3.40
2023-05-25T05:00:40.207Z,3.67
2023-05-25T05:03:08.687Z,4.20
2023-05-25T05:05:37.313Z,4.15
2023-05-25T05:08:05.587Z,4.00
2023-05-25T05:10:33.790Z,4.88
2023-05-25T05:13:01.921Z,4.72
2023-05-25T05:15:30.079Z,3.65
2023-05-25T05:18:00.010Z,5.90
2023-05-25T05:20:28.342Z,4.07
2023-05-25T05:22:56.581Z,5.15
2023-05-25T05:25:24.756Z,4.60
2023-05-25T05:27:52.943Z,4.15
2023-05-25T05:30:22.273Z,4.03
2023-05-25T05:32:50.590Z,4.00
2023-05-25T05:35:20.312Z,4.05
2023-05-25T05:37:48.469Z,5.60
2023-05-25T05:40:16.789Z,4.93
2023-05-25T05:42:44.888Z,4.45
2023-05-25T05:45:13.468Z,5.78
2023-05-25T05:47:41.664Z,4.18
2023-05-25T05:50:10.616Z,5.88
2023-05-25T05:52:40.218Z,4.72
2023-05-25T05:55:09.129Z,4.97
2023-05-25T05:57:37.253Z,4.57
2023-05-25T06:00:07.153Z,5.57
2023-05-25T06:02:35.587Z,5.68
2023-05-25T06:05:04.176Z,6.93
2023-05-25T06:07:35.190Z,4.63
2023-05-25T06:10:05.022Z,4.60
2023-05-25T06:12:33.242Z,6.55
2023-05-25T06:15:01.668Z,4.35
2023-05-25T06:17:30.728Z,4.90
2023-05-25T06:19:58.899Z,4.93
2023-05-25T06:22:28.051Z,5.40
2023-05-25T06:24:56.328Z,4.47
2023-05-25T06:27:25.907Z,4.47
2023-05-25T06:29:54.338Z,5.68
2023-05-25T06:32:22.600Z,5.40
2023-05-25T06:34:50.752Z,4.57
2023-05-25T06:37:18.941Z,6.47
2023-05-25T06:39:47.189Z,5.90
2023-05-25T06:42:15.457Z,4.75
2023-05-25T06:44:45.018Z,5.95
2023-05-25T06:47:13.093Z,5.30
2023-05-25T06:49:41.279Z,5.03
2023-05-25T06:52:09.690Z,5.97
2023-05-25T06:54:37.843Z,4.75
2023-05-25T06:57:06.602Z,4.30
2023-05-25T06:59:34.831Z,4.90
2023-05-25T07:02:04.385Z,5.53
2023-05-25T07:04:33.100Z,5.65
2023-05-25T07:07:01.378Z,4.80
2023-05-25T07:09:29.583Z,4.43
2023-05-25T07:11:57.897Z,4.95
2023-05-25T07:14:26.502Z,5.30
2023-05-25T07:16:54.656Z,5.13
2023-05-25T07:19:24.178Z,5.63
2023-05-25T07:21:52.347Z,5.18
2023-05-25T07:24:20.597Z,2.10
2023-05-25T07:26:49.750Z,5.50
2023-05-25T07:29:17.922Z,3.92
2023-05-25T07:31:46.547Z,5.22
2023-05-25T07:34:15.179Z,6.43
2023-05-25T07:36:45.046Z,5.78
2023-05-25T07:39:13.481Z,4.10
2023-05-25T07:41:41.712Z,4.32
2023-05-25T07:44:09.931Z,4.35
2023-05-25T07:46:38.281Z,4.50
2023-05-25T07:49:12.005Z,5.03
2023-05-25T07:51:40.534Z,4.68
2023-05-25T07:54:10.593Z,4.38
2023-05-25T07:56:39.102Z,4.05
2023-05-25T07:59:07.224Z,5.22
2023-05-25T08:01:36.120Z,4.88
2023-05-25T08:04:04.572Z,4.97
2023-05-25T08:06:34.421Z,4.32
2023-05-25T08:09:04.156Z,3.97
2023-05-25T08:11:33.706Z,3.90
2023-05-25T08:14:02.240Z,3.78
2023-05-25T08:16:30.424Z,4.30
2023-05-25T08:18:59.939Z,3.55
2023-05-25T08:21:28.172Z,3.45
2023-05-25T08:23:56.634Z,4.20
2023-05-25T08:26:38.435Z,3.80
2023-05-25T08:29:15.052Z,3.80
2023-05-25T08:31:45.976Z,3.30
2023-05-25T08:34:14.443Z,3.35
2023-05-25T08:36:42.841Z,4.55
2023-05-25T08:39:11.114Z,3.55
2023-05-25T08:41:44.376Z,3.95
2023-05-25T08:44:15.513Z,4.40
2023-05-25T08:46:44.097Z,3.97
2023-05-25T08:49:14.019Z,3.92
2023-05-25T08:51:44.844Z,4.50
2023-05-25T08:54:14.781Z,4.50
2023-05-25T08:56:50.165Z,4.40
2023-05-25T09:01:51.812Z,4.30
2023-05-25T09:04:22.042Z,3.53
2023-05-25T09:07:05.781Z,4.10
2023-05-25T09:09:39.703Z,3.97
2023-05-25T09:12:09.629Z,3.22
2023-05-25T09:14:45.363Z,2.92
2023-05-25T09:17:16.079Z,3.13
2023-05-25T09:19:44.759Z,3.35
2023-05-25T09:22:16.193Z,3.72
2023-05-25T09:24:45.680Z,3.05
2023-05-25T09:27:18.395Z,3.75
2023-05-25T09:29:49.092Z,4.18
2023-05-25T09:32:20.070Z,3.15
2023-05-25T09:34:49.124Z,2.85
2023-05-25T09:37:19.318Z,4.13
2023-05-25T09:39:48.817Z,3.40
2023-05-25T09:42:17.577Z,2.67
2023-05-25T09:44:45.889Z,2.72
2023-05-25T09:47:16.905Z,3.45
2023-05-25T09:49:49.452Z,3.67
2023-05-25T09:52:18.047Z,2.70
2023-05-25T09:54:47.102Z,3.25
2023-05-25T09:57:16.888Z,2.70
2023-05-25T09:59:46.212Z,1.90
2023-05-25T10:02:15.166Z,3.10
2023-05-25T10:04:43.419Z,3.28
2023-05-25T10:07:14.546Z,2.78
2023-05-25T10:09:46.998Z,2.97
2023-05-25T10:12:20.265Z,2.30
2023-05-25T10:14:51.802Z,4.03
2023-05-25T10:17:24.530Z,3.15
2023-05-25T10:19:57.116Z,3.08
2023-05-25T10:22:28.773Z,3.13
2023-05-25T10:25:02.708Z,2.85
2023-05-25T10:27:36.043Z,2.70
2023-05-25T10:30:04.714Z,2.42
2023-05-25T10:32:33.909Z,3.33
2023-05-25T10:35:03.083Z,3.00
2023-05-25T10:37:32.939Z,3.30
2023-05-25T10:40:02.512Z,3.08
2023-05-25T10:42:31.295Z,1.67
2023-05-25T10:44:59.760Z,2.85
2023-05-25T10:47:28.563Z,2.75
2023-05-25T10:49:58.453Z,2.90
2023-05-25T10:52:29.853Z,3.03
2023-05-25T10:55:01.946Z,1.35
2023-05-25T10:57:30.366Z,3.20
2023-05-25T11:00:06.351Z,2.08
2023-05-25T11:02:50.309Z,3.10
2023-05-25T11:05:38.201Z,3.38
2023-05-25T11:08:08.939Z,2.88
2023-05-25T11:10:52.910Z,2.30
2023-05-25T11:13:40.572Z,2.67
2023-05-25T11:16:14.188Z,1.55
2023-05-25T11:18:43.649Z,3.47
2023-05-25T11:21:16.693Z,2.90
2023-05-25T11:23:57.997Z,2.90
2023-05-25T11:26:29.292Z,2.90
2023-05-25T11:28:59.833Z,2.47
2023-05-25T11:31:34.180Z,3.30
2023-05-25T11:34:06.405Z,3.85
2023-05-25T11:36:37.393Z,2.85
2023-05-25T11:39:17.177Z,2.33
2023-05-25T11:41:52.157Z,2.92
2023-05-25T11:44:31.328Z,2.38
2023-05-25T11:47:03.097Z,2.85
2023-05-25T11:49:31.292Z,2.80
2023-05-25T11:51:59.902Z,2.90
2023-05-25T11:54:28.791Z,2.17
2023-05-25T11:57:00.175Z,3.22
2023-05-25T11:59:30.539Z,2.50
2023-05-25T12:02:01.623Z,2.67
2023-05-25T12:04:32.813Z,3.60
2023-05-25T12:07:05.247Z,2.75
2023-05-25T12:09:34.123Z,3.30
2023-05-25T12:12:05.332Z,3.70
2023-05-25T12:14:37.397Z,2.17
2023-05-25T12:17:07.189Z,2.78
2023-05-25T12:19:36.505Z,2.60
2023-05-25T12:22:05.197Z,3.22
2023-05-25T12:24:33.539Z,2.72
2023-05-25T12:27:05.942Z,2.65
2023-05-25T12:29:34.220Z,1.42
2023-05-25T12:32:06.953Z,3.72
2023-05-25T12:34:35.813Z,3.75
2023-05-25T12:37:04.032Z,3.60
2023-05-25T12:39:39.169Z,4.30
2023-05-25T12:44:42.721Z,4.90
2023-05-25T12:47:12.678Z,3.58
2023-05-25T12:49:42.026Z,3.38
2023-05-25T12:52:11.274Z,3.67
2023-05-25T12:54:43.711Z,3.38
2023-05-25T12:57:14.658Z,3.45
2023-05-25T12:59:44.257Z,3.05
2023-05-25T13:02:15.183Z,3.20
2023-05-25T13:04:44.607Z,3.72
2023-05-25T13:07:13.238Z,4.07
2023-05-25T13:09:41.511Z,3.10
2023-05-25T13:12:09.923Z,3.58
2023-05-25T13:14:39.464Z,3.47
2023-05-25T13:17:07.917Z,3.03
2023-05-25T13:19:36.159Z,3.88
2023-05-25T13:22:04.453Z,2.90
2023-05-25T13:24:32.710Z,2.78
2023-05-25T13:27:01.456Z,4.03
2023-05-25T13:29:29.645Z,3.28
2023-05-25T13:31:59.326Z,2.90
2023-05-25T13:34:27.572Z,3.15
2023-05-25T13:36:55.834Z,3.10
2023-05-25T13:39:24.195Z,3.10
2023-05-25T13:41:52.433Z,2.78
2023-05-25T13:44:20.655Z,3.30
2023-05-25T13:46:48.890Z,3.30
2023-05-25T13:49:19.888Z,2.85
2023-05-25T13:51:48.354Z,3.83
2023-05-25T13:54:16.642Z,3.67
2023-05-25T13:56:44.806Z,3.75
2023-05-25T13:59:13.129Z,3.40
2023-05-25T14:01:41.870Z,2.85
2023-05-25T14:04:11.787Z,2.97
2023-05-25T14:06:41.591Z,2.88
2023-05-25T14:09:12.109Z,3.22
2023-05-25T14:11:40.983Z,3.50
2023-05-25T14:14:13.855Z,3.42
2023-05-25T14:16:50.061Z,2.40
2023-05-25T14:19:18.362Z,3.40
2023-05-25T14:21:56.579Z,3.47
2023-05-25T14:27:01.769Z,2.60
2023-05-25T14:29:30.015Z,3.90
2023-05-25T14:31:58.292Z,3.17
2023-05-25T14:34:26.595Z,3.70
2023-05-25T14:36:56.468Z,2.78
2023-05-25T14:39:25.025Z,3.60
2023-05-25T14:41:53.555Z,3.22
2023-05-25T14:44:22.000Z,3.13
2023-05-25T14:46:50.974Z,3.15
2023-05-25T14:49:19.848Z,4.50
2023-05-25T14:51:48.289Z,3.13
2023-05-25T14:54:18.004Z,3.42
2023-05-25T14:56:46.489Z,3.80
2023-05-25T14:59:15.035Z,3.30
2023-05-25T15:01:43.542Z,3.53
2023-05-25T15:04:13.023Z,4.15
2023-05-25T15:06:41.672Z,3.40
2023-05-25T15:09:12.119Z,3.38
2023-05-25T15:11:41.664Z,3.33
2023-05-25T15:14:09.903Z,3.42
2023-05-25T15:16:38.175Z,3.25
2023-05-25T15:19:07.288Z,3.80
2023-05-25T15:21:37.235Z,3.75
2023-05-25T15:24:05.495Z,4.13
2023-05-25T15:26:33.737Z,4.32
2023-05-25T15:29:03.201Z,3.25
2023-05-25T15:31:33.590Z,3.83
2023-05-25T15:34:02.090Z,3.42
2023-05-25T15:36:31.230Z,3.63
2023-05-25T15:38:59.752Z,3.50
2023-05-25T15:41:28.311Z,4.05
2023-05-25T15:44:01.060Z,4.05
2023-05-25T15:46:31.337Z,3.50
2023-05-25T15:48:59.880Z,3.05
2023-05-25T15:51:28.395Z,3.08
2023-05-25T15:53:56.888Z,3.00
2023-05-25T15:56:26.345Z,3.35
2023-05-25T15:58:54.988Z,3.90
2023-05-25T16:01:23.433Z,3.85
2023-05-25T16:03:53.354Z,2.88
2023-05-25T16:06:21.861Z,3.80
2023-05-25T16:08:50.362Z,3.08
2023-05-25T16:11:18.885Z,2.72
2023-05-25T16:13:47.568Z,4.15
2023-05-25T16:16:18.945Z,4.25
2023-05-25T16:18:47.600Z,4.10
2023-05-25T16:21:17.424Z,4.45
2023-05-25T16:23:46.082Z,3.60
2023-05-25T16:26:14.491Z,3.90
2023-05-25T16:28:42.984Z,3.90
2023-05-25T16:31:12.307Z,3.42
2023-05-25T16:33:41.981Z,3.20
2023-05-25T16:36:10.517Z,3.83
2023-05-25T16:38:40.560Z,3.58
2023-05-25T16:41:09.042Z,3.22
2023-05-25T16:43:37.618Z,2.70
2023-05-25T16:46:08.269Z,3.38
2023-05-25T16:48:36.810Z,4.65
2023-05-25T16:51:05.367Z,3.67
2023-05-25T16:53:33.801Z,3.22
2023-05-25T16:56:03.692Z,2.90
2023-05-25T16:58:32.244Z,3.65
2023-05-25T17:01:00.828Z,3.30
2023-05-25T17:03:29.440Z,3.53
2023-05-25T17:05:57.994Z,3.30
2023-05-25T17:08:26.455Z,3.72
2023-05-25T17:10:54.900Z,3.33
2023-05-25T17:13:24.811Z,2.65
2023-05-25T17:15:53.303Z,3.72
2023-05-25T17:18:22.359Z,4.15
2023-05-25T17:20:50.866Z,2.55
2023-05-25T17:23:19.364Z,3.20
2023-05-25T17:25:47.852Z,3.22
2023-05-25T17:28:16.365Z,3.25
2023-05-25T17:30:46.208Z,2.72
2023-05-25T17:33:14.731Z,3.35
2023-05-25T17:35:43.305Z,2.70
2023-05-25T17:38:11.994Z,3.10
2023-05-25T17:40:40.465Z,3.20
2023-05-25T17:43:08.918Z,3.28
2023-05-25T17:45:37.425Z,4.00
2023-05-25T17:48:07.333Z,3.05
2023-05-25T17:50:35.849Z,3.67
2023-05-25T17:53:04.426Z,3.90
2023-05-25T17:55:32.886Z,3.03
2023-05-25T17:58:01.363Z,3.20
2023-05-25T18:00:30.848Z,3.10
2023-05-25T18:02:59.408Z,4.07
2023-05-25T18:05:29.229Z,3.50
2023-05-25T18:07:57.688Z,3.05
2023-05-25T18:10:26.182Z,4.00
2023-05-25T18:12:54.673Z,2.78
2023-05-25T18:15:23.175Z,3.53
2023-05-25T18:17:51.690Z,3.85
2023-05-25T18:20:20.250Z,3.40
2023-05-25T18:22:50.146Z,3.53
2023-05-25T18:25:18.590Z,3.00
2023-05-25T18:27:47.877Z,3.97
2023-05-25T18:30:19.578Z,2.83
2023-05-25T18:32:48.110Z,3.88
2023-05-25T18:35:16.521Z,3.25
2023-05-25T18:37:44.695Z,3.60
2023-05-25T18:40:17.489Z,3.63
2023-05-25T18:42:45.970Z,3.10
2023-05-25T18:45:14.683Z,3.63
2023-05-25T18:47:43.946Z,3.72
2023-05-25T18:50:12.765Z,3.50
2023-05-25T18:52:41.421Z,3.45
2023-05-25T18:55:10.064Z,3.00
2023-05-25T18:57:39.674Z,3.15
2023-05-25T19:00:09.336Z,3.60
2023-05-25T19:02:38.790Z,3.47
2023-05-25T19:05:11.358Z,3.50
2023-05-25T19:07:51.087Z,3.42
2023-05-25T19:10:26.588Z,3.40
2023-05-25T19:12:56.218Z,3.80
2023-05-25T19:15:24.582Z,3.92
2023-05-25T19:17:52.864Z,3.70
2023-05-25T19:20:21.195Z,4.13
2023-05-25T19:22:49.722Z,3.42
2023-05-25T19:25:18.009Z,3.15
2023-05-25T19:27:46.187Z,3.83
2023-05-25T19:30:15.917Z,3.30
2023-05-25T19:32:44.081Z,3.90
2023-05-25T19:35:12.661Z,3.53
2023-05-25T19:37:41.783Z,3.42
2023-05-25T19:40:11.164Z,3.30
2023-05-25T19:42:39.715Z,3.63
2023-05-25T19:45:08.484Z,3.58
2023-05-25T19:47:38.430Z,3.25
2023-05-25T19:50:07.385Z,3.42
2023-05-25T19:52:35.920Z,3.35
2023-05-25T19:55:04.155Z,2.95
2023-05-25T19:57:32.292Z,4.15
2023-05-25T20:00:00.899Z,3.30
2023-05-25T20:02:29.167Z,4.25
2023-05-25T20:04:58.748Z,3.72
2023-05-25T20:07:26.889Z,4.45
2023-05-25T20:09:55.100Z,3.15
2023-05-25T20:12:23.519Z,4.40
2023-05-25T20:14:51.801Z,3.97
2023-05-25T20:17:19.912Z,4.13
2023-05-25T20:19:48.121Z,4.43
2023-05-25T20:22:17.733Z,4.38
2023-05-25T20:24:45.878Z,5.65
2023-05-25T20:27:14.432Z,5.18
2023-05-25T20:29:42.749Z,4.80
2023-05-25T20:32:11.002Z,4.93
2023-05-25T20:34:39.284Z,4.78
2023-05-25T20:37:07.458Z,5.50
2023-05-25T20:39:37.382Z,5.07
2023-05-25T20:42:06.837Z,4.47
2023-05-25T20:44:35.090Z,5.28
2023-05-25T20:47:03.550Z,4.80
2023-05-25T20:49:31.730Z,5.28
2023-05-25T20:51:59.863Z,5.28
2023-05-25T20:54:28.369Z,4.75
2023-05-25T20:57:01.029Z,4.15
2023-05-25T20:59:31.826Z,5.07
2023-05-25T21:02:02.618Z,5.47
2023-05-25T21:04:31.938Z,5.10
2023-05-25T21:07:00.707Z,6.05
2023-05-25T21:09:28.839Z,5.18
2023-05-25T21:11:58.346Z,4.80
2023-05-25T21:14:26.441Z,5.07
2023-05-25T21:16:54.634Z,5.57
2023-05-25T21:19:22.779Z,5.78
2023-05-25T21:21:51.302Z,6.45
2023-05-25T21:24:19.417Z,5.68
2023-05-25T21:26:47.536Z,4.70
2023-05-25T21:29:17.053Z,6.00
2023-05-25T21:31:46.699Z,3.22
2023-05-25T21:34:14.916Z,6.40
2023-05-25T21:36:43.152Z,6.00
2023-05-25T21:39:11.243Z,6.82
2023-05-25T21:41:39.363Z,5.93
2023-05-25T21:44:07.543Z,5.07
2023-05-25T21:46:38.174Z,5.63
2023-05-25T21:49:06.373Z,6.13
2023-05-25T21:51:34.503Z,6.43
2023-05-25T21:54:03.629Z,6.63
2023-05-25T21:56:31.788Z,5.55
2023-05-25T21:59:00.012Z,5.93
2023-05-25T22:01:28.540Z,5.30
2023-05-25T22:03:58.419Z,6.53
2023-05-25T22:06:26.882Z,5.68
2023-05-25T22:08:55.337Z,5.15
2023-05-25T22:11:24.538Z,5.18
2023-05-25T22:13:52.915Z,5.75
2023-05-25T22:16:21.920Z,6.30
2023-05-25T22:18:50.265Z,5.05
2023-05-25T22:21:19.780Z,6.00
2023-05-25T22:23:47.993Z,4.90
2023-05-25T22:26:16.300Z,5.00
2023-05-25T22:28:44.414Z,7.07
2023-05-25T22:31:12.732Z,5.28
2023-05-25T22:33:40.981Z,5.35
2023-05-25T22:36:09.212Z,6.70
2023-05-25T22:38:38.706Z,5.43
2023-05-25T22:41:06.839Z,5.63
2023-05-25T22:43:34.913Z,5.68
2023-05-25T22:46:03.102Z,5.35
2023-05-25T22:48:31.761Z,5.15
2023-05-25T22:50:59.984Z,5.97
2023-05-25T22:53:28.100Z,5.93
2023-05-25T22:55:57.831Z,5.28
2023-05-25T22:58:25.985Z,5.75
2023-05-25T23:00:54.477Z,5.10
2023-05-25T23:03:22.725Z,4.72
2023-05-25T23:05:50.939Z,5.40
2023-05-25T23:08:19.106Z,5.70
2023-05-25T23:10:47.232Z,6.43
2023-05-25T23:13:16.849Z,5.00
2023-05-25T23:15:45.237Z,6.07
2023-05-25T23:18:13.585Z,5.18
2023-05-25T23:20:41.938Z,6.25
2023-05-25T23:23:10.219Z,4.75
2023-05-25T23:25:38.349Z,5.38
2023-05-25T23:28:06.463Z,4.95
2023-05-25T23:30:35.955Z,4.55
2023-05-25T23:33:04.120Z,5.35
2023-05-25T23:35:32.281Z,5.18
2023-05-25T23:38:01.833Z,5.78
2023-05-25T23:40:30.226Z,5.50
2023-05-25T23:42:58.368Z,5.45
2023-05-25T23:45:26.548Z,5.53
2023-05-25T23:47:56.469Z,5.28
2023-05-25T23:50:24.842Z,5.35
2023-05-25T23:52:53.063Z,5.35
2023-05-25T23:55:21.200Z,5.68
2023-05-25T23:57:49.358Z,6.50
